Time;durP1;ratioP1;P1;durP2;ratioP2;P2;SDS_P1;SDS_P2;PMS_P1;PMS_P2;Temp;Humidity;BMP_temperature;BMP_pressure;BME280_temperature;BME280_humidity;BME280_pressure;Samples;Min_cycle;Max_cycle;Signal;HPM_P1;HPM_P2
2023/11/27 05:38:25;;;;;;;19.40;15.10;;;;;;;-0.80;81.35;99145.33;101560;1254;1005058;-64
2023/11/27 05:40:52;;;;;;;20.50;14.90;;;;;;;-0.83;81.35;99152.34;102352;1255;1002563;-65
2023/11/27 05:43:19;;;;;;;19.20;14.20;;;;;;;-0.88;81.40;99151.17;101643;1257;1003445;-66
2023/11/27 05:45:47;;;;;;;18.30;14.30;;;;;;;-0.89;81.43;99156.11;101625;1256;1003810;-64
2023/11/27 05:48:13;;;;;;;17.60;13.50;;;;;;;-0.90;81.58;99149.29;103109;1257;138727;-66
2023/11/27 05:50:41;;;;;;;17.50;13.70;;;;;;;-0.91;81.29;99151.84;102474;1256;1003640;-66
2023/11/27 05:53:08;;;;;;;19.20;14.00;;;;;;;-0.94;81.48;99146.23;103243;1255;139282;-67
2023/11/27 05:55:36;;;;;;;21.20;14.10;;;;;;;-0.89;81.47;99149.64;103227;1259;109237;-66
2023/11/27 05:58:04;;;;;;;19.20;13.70;;;;;;;-0.89;81.74;99147.42;104214;1255;96950;-67
2023/11/27 06:00:31;;;;;;;16.80;13.50;;;;;;;-0.84;81.67;99153.54;103251;1256;107345;-67
2023/11/27 06:02:58;;;;;;;19.30;14.20;;;;;;;-0.79;81.75;99154.70;102460;1255;1002889;-66
2023/11/27 06:05:26;;;;;;;19.10;14.80;;;;;;;-0.76;81.59;99153.14;102776;1255;1003037;-66
2023/11/27 06:07:53;;;;;;;22.40;15.70;;;;;;;-0.74;81.35;99154.51;103132;1258;108181;-65
2023/11/27 06:10:19;;;;;;;20.80;15.50;;;;;;;-0.72;81.56;99149.91;102672;1256;1003810;-66
2023/11/27 06:12:46;;;;;;;21.00;15.40;;;;;;;-0.71;81.32;99146.66;103771;1256;107556;-66
2023/11/27 06:15:14;;;;;;;21.60;16.30;;;;;;;-0.73;81.08;99149.04;103322;1256;97798;-67
2023/11/27 06:17:41;;;;;;;22.40;16.30;;;;;;;-0.77;81.14;99152.81;102395;1254;1003791;-66
2023/11/27 06:20:12;;;;;;;20.60;15.10;;;;;;;-0.78;81.20;99156.75;103172;1256;107768;-65
2023/11/27 06:22:39;;;;;;;19.20;13.60;;;;;;;-0.80;81.27;99162.23;103291;1257;138919;-66
2023/11/27 06:25:07;;;;;;;19.60;14.20;;;;;;;-0.81;81.48;99160.52;103159;1259;107620;-66
2023/11/27 06:27:34;;;;;;;18.80;12.70;;;;;;;-0.79;81.51;99162.21;103086;1256;1002939;-65
2023/11/27 06:30:01;;;;;;;18.70;13.10;;;;;;;-0.76;81.53;99160.14;103092;1259;138765;-66
2023/11/27 06:32:29;;;;;;;18.60;13.70;;;;;;;-0.72;81.38;99158.61;103359;1257;108294;-66
2023/11/27 06:34:56;;;;;;;21.80;14.90;;;;;;;-0.73;81.15;99160.98;103105;1256;139215;-68
2023/11/27 06:37:23;;;;;;;19.30;14.60;;;;;;;-0.71;81.37;99159.98;103805;1257;107335;-66
2023/11/27 06:39:51;;;;;;;25.80;16.60;;;;;;;-0.71;81.20;99160.31;102415;1254;1002973;-65
2023/11/27 06:42:18;;;;;;;19.60;15.50;;;;;;;-0.70;81.25;99162.02;103067;1255;138171;-66
2023/11/27 06:44:45;;;;;;;20.40;15.60;;;;;;;-0.70;81.34;99161.67;104315;1254;107567;-66
2023/11/27 06:47:12;;;;;;;21.00;16.50;;;;;;;-0.72;81.42;99160.84;102788;1255;1003581;-66
2023/11/27 06:49:39;;;;;;;23.80;16.00;;;;;;;-0.75;81.24;99164.76;103215;1256;106604;-67
2023/11/27 06:52:07;;;;;;;23.60;15.60;;;;;;;-0.80;81.28;99163.92;102437;1257;1002922;-66
2023/11/27 06:54:34;;;;;;;22.90;14.70;;;;;;;-0.82;81.43;99162.91;102142;1256;1003688;-67
2023/11/27 06:57:01;;;;;;;21.80;14.60;;;;;;;-0.81;81.45;99166.66;103120;1259;107416;-65
2023/11/27 06:59:27;;;;;;;19.90;14.30;;;;;;;-0.77;81.51;99161.70;102969;1255;138981;-67
2023/11/27 07:01:54;;;;;;;22.40;14.60;;;;;;;-0.72;81.52;99165.77;102443;1259;1004961;-66
2023/11/27 07:04:21;;;;;;;21.00;13.20;;;;;;;-0.68;81.47;99162.86;103035;1259;138814;-66
2023/11/27 07:06:48;;;;;;;21.40;14.20;;;;;;;-0.65;81.35;99163.70;103295;1257;110996;-66
2023/11/27 07:09:15;;;;;;;18.30;15.00;;;;;;;-0.61;81.24;99161.11;103224;1254;107261;-66
2023/11/27 07:11:42;;;;;;;19.70;15.30;;;;;;;-0.57;81.30;99164.84;103043;1257;138978;-66
2023/11/27 07:14:10;;;;;;;20.10;15.40;;;;;;;-0.54;81.14;99166.20;103257;1255;108368;-65
2023/11/27 07:16:37;;;;;;;21.40;16.30;;;;;;;-0.54;80.79;99172.34;102345;1257;1003446;-67
2023/11/27 07:19:05;;;;;;;23.00;15.20;;;;;;;-0.55;80.99;99178.15;103029;1256;160956;-67
2023/11/27 07:21:32;;;;;;;22.40;16.50;;;;;;;-0.57;80.91;99179.02;103207;1257;107999;-67
2023/11/27 07:23:59;;;;;;;22.50;15.70;;;;;;;-0.60;80.87;99179.02;103123;1256;138881;-66
2023/11/27 07:26:26;;;;;;;20.00;14.90;;;;;;;-0.64;80.77;99176.15;103228;1256;108666;-67
2023/11/27 07:28:55;;;;;;;19.90;14.80;;;;;;;-0.63;80.79;99184.86;102407;1254;1003261;-67
2023/11/27 07:31:22;;;;;;;19.90;14.30;;;;;;;-0.61;80.97;99181.59;103126;1254;111182;-66
2023/11/27 07:33:51;;;;;;;19.80;13.80;;;;;;;-0.56;80.98;99179.02;103207;1256;107785;-66
2023/11/27 07:36:20;;;;;;;20.60;13.80;;;;;;;-0.55;80.76;99177.46;103150;1259;138724;-67
2023/11/27 07:38:48;;;;;;;20.20;14.20;;;;;;;-0.53;80.84;99177.30;103233;1256;108372;-67
2023/11/27 07:41:15;;;;;;;19.70;13.40;;;;;;;-0.48;81.20;99177.11;103220;1254;138737;-67
2023/11/27 07:43:42;;;;;;;17.00;13.30;;;;;;;-0.36;81.45;99169.53;102492;1257;1003536;-67
2023/11/27 07:46:13;;;;;;;18.10;13.30;;;;;;;-0.27;81.01;99169.83;103189;1257;107918;-67
2023/11/27 07:48:41;;;;;;;20.60;13.60;;;;;;;-0.22;80.54;99172.00;102520;1256;1002700;-65
2023/11/27 07:51:10;;;;;;;20.20;14.80;;;;;;;-0.21;80.48;99172.16;103521;1256;108047;-67
2023/11/27 07:53:38;;;;;;;18.70;14.50;;;;;;;-0.19;80.37;99171.81;102824;1254;1003109;-67
2023/11/27 07:56:07;;;;;;;19.80;14.30;;;;;;;-0.20;80.05;99173.70;103238;1256;110253;-67
2023/11/27 07:58:36;;;;;;;19.70;14.40;;;;;;;-0.22;79.88;99175.25;104250;1256;139166;-66
2023/11/27 08:01:04;;;;;;;20.50;14.10;;;;;;;-0.23;79.89;99171.33;103123;1259;97775;-67
2023/11/27 08:03:31;;;;;;;19.10;13.40;;;;;;;-0.21;80.13;99172.34;102609;1256;1003364;-69
2023/11/27 08:05:59;;;;;;;18.40;13.00;;;;;;;-0.19;79.93;99171.65;103099;1256;138834;-67
2023/11/27 08:08:26;;;;;;;18.20;12.30;;;;;;;-0.20;79.76;99167.37;103213;1259;110965;-67
2023/11/27 08:10:53;;;;;;;18.70;12.20;;;;;;;-0.18;79.84;99164.98;103332;1255;138839;-68
2023/11/27 08:13:20;;;;;;;15.50;11.60;;;;;;;-0.16;79.91;99163.95;103324;1259;98113;-66
2023/11/27 08:15:49;;;;;;;14.50;10.60;;;;;;;-0.15;79.64;99160.36;103192;1256;107533;-67
2023/11/27 08:18:17;;;;;;;18.30;12.20;;;;;;;-0.11;79.49;99158.79;103121;1255;138473;-66
2023/11/27 08:20:44;;;;;;;17.80;12.50;;;;;;;-0.09;79.24;99165.10;103060;1256;110949;-67
2023/11/27 08:23:12;;;;;;;18.80;12.70;;;;;;;-0.07;79.29;99162.01;103145;1259;137902;-67
2023/11/27 08:25:43;;;;;;;17.30;13.60;;;;;;;-0.04;79.24;99158.91;103232;1257;97817;-67
2023/11/27 08:28:11;;;;;;;18.30;14.10;;;;;;;-0.05;78.99;99162.49;103262;1257;107926;-67
2023/11/27 08:30:41;;;;;;;18.80;14.10;;;;;;;-0.04;79.08;99167.96;101733;1256;1003058;-67
2023/11/27 08:33:08;;;;;;;20.00;15.00;;;;;;;-0.06;78.86;99166.44;103228;1256;111944;-67
2023/11/27 08:35:36;;;;;;;20.70;14.60;;;;;;;-0.10;78.64;99170.58;103380;1256;137766;-67
2023/11/27 08:38:04;;;;;;;22.70;15.30;;;;;;;-0.14;78.53;99167.18;103278;1257;97874;-67
2023/11/27 08:40:31;;;;;;;19.20;13.90;;;;;;;-0.15;78.54;99166.00;103152;1256;138502;-67
2023/11/27 08:43:00;;;;;;;18.70;14.10;;;;;;;-0.15;78.50;99160.36;103225;1258;97705;-67
2023/11/27 08:45:29;;;;;;;20.60;14.20;;;;;;;-0.15;78.20;99161.39;102687;1254;1003540;-67
2023/11/27 08:47:56;;;;;;;18.90;13.90;;;;;;;-0.16;78.33;99159.68;103160;1256;138732;-67
2023/11/27 08:50:27;;;;;;;19.50;13.70;;;;;;;-0.16;78.27;99162.08;103298;1256;97850;-68
2023/11/27 08:52:56;;;;;;;22.70;15.10;;;;;;;-0.13;78.41;99161.04;103154;1258;138780;-67
2023/11/27 08:55:28;;;;;;;23.00;15.90;;;;;;;-0.07;78.63;99165.41;103261;1256;97807;-67
2023/11/27 08:57:57;;;;;;;22.10;15.70;;;;;;;0.02;78.50;99164.17;103246;1256;111847;-67
2023/11/27 09:00:28;;;;;;;22.30;15.90;;;;;;;0.08;78.39;99167.54;102522;1256;1003201;-68
2023/11/27 09:02:56;;;;;;;23.90;16.30;;;;;;;0.12;78.22;99164.09;102494;1254;1002739;-67
2023/11/27 09:05:26;;;;;;;23.20;16.50;;;;;;;0.15;78.17;99160.48;102329;1256;1003219;-67
2023/11/27 09:07:54;;;;;;;23.30;16.30;;;;;;;0.16;77.78;99160.13;102530;1256;1003010;-67
2023/11/27 09:10:21;;;;;;;22.20;15.30;;;;;;;0.16;77.73;99155.85;103065;1256;138164;-69
2023/11/27 09:12:49;;;;;;;21.30;14.50;;;;;;;0.25;77.86;99148.96;103303;1256;106997;-67
2023/11/27 09:15:17;;;;;;;20.40;14.60;;;;;;;0.35;77.57;99149.73;102888;1256;1003258;-67
2023/11/27 09:17:44;;;;;;;20.40;14.30;;;;;;;0.45;77.27;99149.29;102574;1257;1003375;-68
2023/11/27 09:20:15;;;;;;;18.10;13.80;;;;;;;0.54;76.85;99148.02;103571;1256;97810;-68
2023/11/27 09:22:42;;;;;;;18.70;13.70;;;;;;;0.59;76.70;99143.17;103187;1254;138998;-68
2023/11/27 09:25:12;;;;;;;21.80;13.80;;;;;;;0.66;76.43;99140.02;103146;1257;110080;-68
2023/11/27 09:27:40;;;;;;;19.80;13.50;;;;;;;0.73;76.32;99143.04;103340;1259;1002227;-67
2023/11/27 09:30:09;;;;;;;17.00;12.90;;;;;;;0.75;76.01;99139.27;103069;1257;138006;-68
2023/11/27 09:32:36;;;;;;;21.60;14.20;;;;;;;0.73;75.83;99140.30;103128;1256;97801;-68
2023/11/27 09:35:04;;;;;;;19.40;14.20;;;;;;;0.73;75.90;99134.14;103178;1259;136723;-68
2023/11/27 09:37:32;;;;;;;23.20;15.30;;;;;;;0.71;75.76;99131.59;102475;1257;1003321;-68
2023/11/27 09:40:05;;;;;;;20.20;14.20;;;;;;;0.66;76.15;99132.67;103290;1257;97817;-67
2023/11/27 09:42:35;;;;;;;17.50;13.00;;;;;;;0.67;76.21;99130.61;102331;1256;1003453;-68
2023/11/27 09:45:16;;;;;;;18.20;14.30;;;;;;;0.68;76.04;99127.69;103162;1256;97803;-67
2023/11/27 09:47:44;;;;;;;18.40;12.00;;;;;;;0.65;75.92;99125.50;102456;1254;1003638;-67
2023/11/27 09:50:13;;;;;;;17.00;11.30;;;;;;;0.60;75.57;99123.33;103227;1254;108282;-67
2023/11/27 09:52:52;;;;;;;17.00;12.60;;;;;;;0.60;75.70;99123.84;103165;1259;138813;-68
2023/11/27 09:55:21;;;;;;;19.10;13.40;;;;;;;0.60;75.58;99118.89;103163;1256;107967;-66
2023/11/27 09:57:49;;;;;;;22.70;13.80;;;;;;;0.57;75.67;99114.63;103305;1259;97906;-67
2023/11/27 10:00:19;;;;;;;16.50;12.50;;;;;;;0.54;75.58;99113.12;103111;1255;137628;-67
2023/11/27 10:02:48;;;;;;;19.20;13.80;;;;;;;0.49;75.81;99116.92;102920;1256;1015873;-67
2023/11/27 10:05:16;;;;;;;17.90;14.20;;;;;;;0.48;75.91;99116.08;102460;1259;1003498;-66
2023/11/27 10:07:46;;;;;;;18.10;14.70;;;;;;;0.46;76.20;99119.36;103169;1256;108561;-67
2023/11/27 10:10:14;;;;;;;17.50;12.70;;;;;;;0.45;76.31;99115.77;103157;1257;97816;-67
2023/11/27 10:12:46;;;;;;;19.70;13.30;;;;;;;0.42;76.35;99115.46;103287;1259;112472;-67
2023/11/27 10:15:14;;;;;;;18.30;13.10;;;;;;;0.37;76.49;99115.00;103701;1257;107524;-66
2023/11/27 10:17:43;;;;;;;17.90;13.10;;;;;;;0.36;76.60;99113.13;103165;1256;138500;-67
2023/11/27 10:20:12;;;;;;;18.90;13.90;;;;;;;0.40;76.93;99113.27;103291;1255;107883;-67
2023/11/27 10:22:40;;;;;;;16.10;13.10;;;;;;;0.50;77.22;99118.80;103610;1256;138490;-66
2023/11/27 10:25:08;;;;;;;18.80;13.60;;;;;;;0.61;77.11;99123.49;103341;1259;112203;-67
2023/11/27 10:27:35;;;;;;;20.00;15.30;;;;;;;0.59;76.72;99119.23;103325;1256;107788;-65
2023/11/27 10:30:04;;;;;;;22.10;15.30;;;;;;;0.56;76.53;99117.55;102403;1256;1003709;-66
2023/11/27 10:32:31;;;;;;;21.80;15.80;;;;;;;0.50;76.46;99114.00;103279;1259;107773;-66
2023/11/27 10:34:59;;;;;;;20.80;16.60;;;;;;;0.42;76.57;99114.79;103132;1259;138413;-66
2023/11/27 10:37:27;;;;;;;22.20;16.80;;;;;;;0.36;76.95;99107.14;103257;1255;111241;-67
2023/11/27 10:39:57;;;;;;;25.30;18.40;;;;;;;0.30;77.21;99111.98;103123;1256;108582;-67
2023/11/27 10:42:30;;;;;;;22.70;17.30;;;;;;;0.22;77.29;99103.52;103608;1259;138260;-67
2023/11/27 10:44:57;;;;;;;23.30;16.00;;;;;;;0.17;77.69;99102.52;102444;1257;1003255;-67
2023/11/27 10:47:26;;;;;;;23.20;15.90;;;;;;;0.15;77.86;99101.85;103071;1257;138668;-67
2023/11/27 10:49:57;;;;;;;23.80;17.70;;;;;;;0.14;78.14;99104.92;103214;1259;110743;-67
2023/11/27 10:52:25;;;;;;;29.40;17.60;;;;;;;0.16;78.33;99098.59;102487;1257;1002488;-68
2023/11/27 10:54:54;;;;;;;25.20;16.70;;;;;;;0.19;78.46;99100.45;102420;1256;1003006;-68
2023/11/27 10:57:22;;;;;;;25.00;17.20;;;;;;;0.24;78.78;99092.89;103047;1256;107566;-67
2023/11/27 10:59:49;;;;;;;22.00;16.70;;;;;;;0.32;78.77;99096.57;102259;1262;1003086;-67
2023/11/27 11:02:17;;;;;;;21.90;17.20;;;;;;;0.33;78.72;99096.05;103118;1257;111051;-68
2023/11/27 11:04:51;;;;;;;22.20;17.90;;;;;;;0.32;78.53;99090.23;103063;1259;138770;-68
2023/11/27 11:07:26;;;;;;;23.80;17.10;;;;;;;0.26;78.54;99090.98;103374;1260;97900;-68
2023/11/27 11:09:55;;;;;;;26.60;18.20;;;;;;;0.20;78.55;99090.88;102760;1260;108193;-68
2023/11/27 11:12:24;;;;;;;23.20;18.40;;;;;;;0.15;78.80;99093.98;102529;1256;1003713;-68
2023/11/27 11:14:53;;;;;;;23.30;17.60;;;;;;;0.08;78.94;99091.15;102430;1260;1002772;-67
2023/11/27 11:17:29;;;;;;;22.30;17.50;;;;;;;0.06;79.27;99095.79;102704;1260;1002972;-68
2023/11/27 11:20:13;;;;;;;20.50;17.10;;;;;;;0.03;79.75;99094.78;104221;1254;96235;-68
2023/11/27 11:22:47;;;;;;;21.90;16.60;;;;;;;0.04;79.82;99092.05;103074;1256;138544;-63
2023/11/27 11:25:28;;;;;;;22.40;16.30;;;;;;;0.05;79.85;99087.25;104350;1259;96363;-68
2023/11/27 11:28:05;;;;;;;20.20;15.90;;;;;;;0.07;80.25;99086.20;104212;1255;110874;-69
2023/11/27 11:30:34;;;;;;;22.30;15.40;;;;;;;0.12;80.33;99081.70;103212;1256;1002449;-70
2023/11/27 11:33:03;;;;;;;19.60;15.10;;;;;;;0.15;80.34;99084.58;103692;1257;98342;-69
2023/11/27 11:35:36;;;;;;;20.70;15.60;;;;;;;0.18;80.42;99082.17;103011;1261;138150;-69
2023/11/27 11:38:14;;;;;;;21.80;16.30;;;;;;;0.23;80.59;99085.04;103706;1256;97564;-69
2023/11/27 11:40:48;;;;;;;19.70;15.20;;;;;;;0.27;80.46;99089.09;103504;1257;138921;-69
2023/11/27 11:43:16;;;;;;;20.70;15.60;;;;;;;0.36;80.62;99090.73;104089;1257;107186;-68
2023/11/27 11:45:46;;;;;;;22.20;16.30;;;;;;;0.39;80.34;99088.31;102399;1256;1003627;-68
2023/11/27 11:48:17;;;;;;;19.80;15.60;;;;;;;0.41;80.24;99087.42;103231;1260;137867;-68
2023/11/27 11:50:46;;;;;;;24.80;16.20;;;;;;;0.44;80.23;99083.12;102304;1257;1003608;-68
2023/11/27 11:53:42;;;;;;;21.90;16.00;;;;;;;0.46;80.13;99081.39;103112;1259;1002953;-68
2023/11/27 11:56:19;;;;;;;20.20;15.50;;;;;;;0.44;79.85;99079.02;103878;1257;106579;-68
2023/11/27 11:58:46;;;;;;;18.70;15.10;;;;;;;0.39;79.75;99073.25;103251;1259;138401;-68
2023/11/27 12:01:14;;;;;;;19.80;14.60;;;;;;;0.35;79.70;99074.66;102502;1257;1003635;-66
2023/11/27 12:03:46;;;;;;;21.30;16.20;;;;;;;0.33;79.79;99075.54;103207;1256;97870;-67
2023/11/27 12:06:17;;;;;;;21.70;15.70;;;;;;;0.32;79.81;99071.95;103156;1256;138287;-68
2023/11/27 12:08:45;;;;;;;19.80;15.20;;;;;;;0.35;80.10;99071.74;103227;1257;107754;-66
2023/11/27 12:11:14;;;;;;;19.90;14.40;;;;;;;0.36;80.10;99071.41;103203;1257;138544;-68
2023/11/27 12:13:43;;;;;;;20.10;14.40;;;;;;;0.34;79.71;99065.27;103512;1259;106067;-68
2023/11/27 12:16:12;;;;;;;20.00;14.50;;;;;;;0.34;79.86;99067.15;103228;1259;97788;-68
2023/11/27 12:18:43;;;;;;;20.80;14.30;;;;;;;0.36;79.83;99066.79;102794;1259;1002816;-66
2023/11/27 12:21:14;;;;;;;18.50;14.50;;;;;;;0.36;79.78;99063.89;103248;1260;106205;-67
2023/11/27 12:23:43;;;;;;;20.90;15.50;;;;;;;0.40;79.89;99063.17;103643;1256;139535;-68
2023/11/27 12:26:22;;;;;;;22.20;15.70;;;;;;;0.41;79.80;99060.08;103214;1256;107929;-68
2023/11/27 12:28:49;;;;;;;23.20;16.40;;;;;;;0.39;79.92;99060.61;102496;1257;1002949;-67
2023/11/27 12:31:17;;;;;;;21.20;15.90;;;;;;;0.34;79.73;99060.47;103218;1256;112286;-68
2023/11/27 12:33:47;;;;;;;23.90;15.10;;;;;;;0.28;79.70;99060.02;102709;1256;1002616;-69
2023/11/27 12:36:20;;;;;;;21.10;14.70;;;;;;;0.20;79.84;99064.03;102967;1256;138564;-67
2023/11/27 12:38:52;;;;;;;20.60;15.60;;;;;;;0.13;79.92;99065.48;104435;1258;107347;-68
2023/11/27 12:41:29;;;;;;;22.80;16.30;;;;;;;0.10;80.20;99068.05;103519;1257;140718;-67
2023/11/27 12:44:15;;;;;;;20.20;14.60;;;;;;;0.12;80.56;99065.14;104533;1257;111001;-68
2023/11/27 12:46:48;;;;;;;21.20;14.70;;;;;;;0.10;80.34;99064.47;103200;1254;138564;-66
2023/11/27 12:49:22;;;;;;;17.60;14.30;;;;;;;0.09;80.46;99064.98;103723;1257;98311;-66
2023/11/27 12:51:51;;;;;;;22.60;15.40;;;;;;;0.08;80.49;99063.45;103159;1259;1002930;-67
2023/11/27 12:54:19;;;;;;;23.00;14.70;;;;;;;0.06;80.76;99062.98;103635;1258;138407;-66
2023/11/27 12:56:50;;;;;;;21.20;15.20;;;;;;;0.10;81.05;99059.17;103529;1257;110960;-68
2023/11/27 12:59:18;;;;;;;18.60;14.40;;;;;;;0.16;81.17;99060.81;103147;1265;138345;-67
2023/11/27 13:01:55;;;;;;;21.70;15.60;;;;;;;0.22;81.22;99062.30;103477;1260;98242;-68
2023/11/27 13:04:29;;;;;;;21.70;15.60;;;;;;;0.26;80.87;99057.31;103060;1257;137658;-69
2023/11/27 13:06:57;;;;;;;24.70;16.30;;;;;;;0.28;80.79;99051.81;102982;1255;1002823;-68
2023/11/27 13:09:24;;;;;;;21.30;16.10;;;;;;;0.28;80.80;99050.95;103762;1257;110317;-67
2023/11/27 13:11:52;;;;;;;23.20;16.50;;;;;;;0.25;80.70;99046.72;103713;1259;138811;-68
2023/11/27 13:14:19;;;;;;;19.00;15.20;;;;;;;0.22;80.65;99053.25;102481;1254;1002763;-67
2023/11/27 13:16:47;;;;;;;22.40;16.20;;;;;;;0.18;80.63;99045.59;103236;1260;139359;-67
2023/11/27 13:19:15;;;;;;;22.30;15.50;;;;;;;0.17;80.83;99042.67;103897;1260;96535;-68
2023/11/27 13:21:44;;;;;;;20.00;14.70;;;;;;;0.18;80.91;99041.15;102489;1255;1003105;-69
2023/11/27 13:24:13;;;;;;;18.60;14.30;;;;;;;0.18;80.83;99039.10;103491;1259;138521;-66
2023/11/27 13:26:40;;;;;;;19.30;14.50;;;;;;;0.17;80.93;99040.29;103574;1259;98416;-68
2023/11/27 13:29:08;;;;;;;19.60;13.80;;;;;;;0.21;81.05;99041.80;103122;1258;138485;-67
2023/11/27 13:31:38;;;;;;;19.50;14.40;;;;;;;0.23;80.95;99037.17;103761;1254;97815;-68
2023/11/27 13:34:32;;;;;;;18.80;14.20;;;;;;;0.23;80.89;99035.63;103354;1260;110401;-69
2023/11/27 13:36:59;;;;;;;19.60;14.90;;;;;;;0.23;80.68;99033.58;103135;1254;110753;-69
2023/11/27 13:39:31;;;;;;;20.70;15.50;;;;;;;0.22;80.61;99033.09;103475;1254;1002587;-68
2023/11/27 13:41:58;;;;;;;21.20;15.60;;;;;;;0.20;80.72;99034.98;103242;1258;137874;-68
2023/11/27 13:44:28;;;;;;;24.20;17.60;;;;;;;0.18;80.70;99028.50;102454;1255;1003387;-68
2023/11/27 13:46:55;;;;;;;25.00;16.60;;;;;;;0.15;80.74;99024.07;102395;1256;1003766;-68
2023/11/27 13:49:25;;;;;;;21.60;16.30;;;;;;;0.14;81.07;99025.29;102661;1259;1002762;-67
2023/11/27 13:52:00;;;;;;;23.90;16.90;;;;;;;0.13;80.92;99025.98;103299;1259;97801;-68
2023/11/27 13:54:44;;;;;;;25.40;16.50;;;;;;;0.12;80.96;99025.30;103215;1261;138828;-68
2023/11/27 13:57:11;;;;;;;23.60;15.40;;;;;;;0.07;81.13;99015.62;103344;1255;97691;-67
2023/11/27 13:59:42;;;;;;;20.40;14.90;;;;;;;0.08;81.27;99023.47;103088;1257;139851;-67
2023/11/27 14:02:11;;;;;;;19.00;13.90;;;;;;;0.10;81.35;99026.18;102469;1258;1003155;-69
2023/11/27 14:04:39;;;;;;;20.20;14.60;;;;;;;0.15;81.42;99026.30;102520;1259;1002547;-69
2023/11/27 14:07:08;;;;;;;21.70;15.00;;;;;;;0.20;81.44;99025.92;102448;1258;1003083;-67
2023/11/27 14:09:55;;;;;;;23.20;17.50;;;;;;;0.23;81.21;99023.84;102531;1254;1003021;-70
2023/11/27 14:12:27;;;;;;;21.00;15.70;;;;;;;0.24;81.16;99018.02;102804;1254;1002448;-67
2023/11/27 14:15:08;;;;;;;26.00;17.90;;;;;;;0.24;81.12;99015.96;102558;1260;1003634;-67
2023/11/27 14:17:37;;;;;;;25.20;17.10;;;;;;;0.26;81.04;99016.11;103592;1257;138975;-67
2023/11/27 14:23:04;;;;;;;25.90;17.60;;;;;;;0.18;81.00;99019.09;102711;1259;1002893;-67
2023/11/27 14:25:51;;;;;;;21.20;16.10;;;;;;;0.13;80.95;99020.16;103574;1254;112300;-68
2023/11/27 14:28:30;;;;;;;19.10;14.50;;;;;;;0.13;80.95;99020.33;103179;1260;1002162;-67
2023/11/27 14:30:58;;;;;;;23.50;15.70;;;;;;;0.10;80.87;99018.66;103432;1255;97910;-69
2023/11/27 14:33:25;;;;;;;21.80;15.20;;;;;;;0.10;81.06;99021.75;103024;1254;107436;-67
2023/11/27 14:35:53;;;;;;;25.30;16.30;;;;;;;0.14;81.15;99017.08;102370;1260;1003032;-67
2023/11/27 14:38:25;;;;;;;28.10;17.20;;;;;;;0.17;81.17;99016.71;103428;1259;111190;-67
2023/11/27 14:40:52;;;;;;;24.00;18.10;;;;;;;0.17;81.10;99017.21;103648;1254;137816;-67
2023/11/27 14:43:20;;;;;;;25.80;17.80;;;;;;;0.14;81.00;99012.46;103910;1261;97743;-67
2023/11/27 14:45:48;;;;;;;24.30;18.00;;;;;;;0.16;81.18;99010.90;103744;1258;106718;-66
2023/11/27 14:48:15;;;;;;;29.70;18.10;;;;;;;0.16;81.15;99007.99;102639;1254;1003109;-67
2023/11/27 14:50:45;;;;;;;24.60;17.30;;;;;;;0.18;81.30;99006.61;103662;1254;111392;-68
2023/11/27 14:53:12;;;;;;;23.30;16.70;;;;;;;0.18;81.30;99003.38;103766;1254;138333;-68
2023/11/27 14:55:40;;;;;;;23.60;16.90;;;;;;;0.19;81.39;98999.96;104197;1257;97793;-67
2023/11/27 14:58:12;;;;;;;22.60;16.70;;;;;;;0.18;81.25;98998.75;103395;1254;108767;-67
2023/11/27 15:00:43;;;;;;;22.10;16.10;;;;;;;0.18;81.29;98993.98;103092;1258;139413;-68
2023/11/27 15:03:12;;;;;;;23.40;15.90;;;;;;;0.17;81.13;98997.21;103881;1257;111732;-68
2023/11/27 15:05:42;;;;;;;22.90;14.60;;;;;;;0.18;81.09;98994.30;103095;1260;139254;-68
2023/11/27 15:08:14;;;;;;;21.60;15.90;;;;;;;0.19;80.78;98988.84;101894;1260;1003788;-68
2023/11/27 15:10:42;;;;;;;19.00;15.10;;;;;;;0.20;80.79;98985.42;103177;1254;138038;-68
2023/11/27 15:13:09;;;;;;;19.50;14.60;;;;;;;0.20;80.72;98983.19;103693;1254;97919;-69
2023/11/27 15:15:39;;;;;;;21.40;14.60;;;;;;;0.21;80.31;98978.23;103512;1254;111260;-68
2023/11/27 15:18:06;;;;;;;18.10;13.70;;;;;;;0.19;79.71;98980.46;103048;1261;138174;-67
2023/11/27 15:20:35;;;;;;;17.70;13.70;;;;;;;0.14;79.44;98982.04;104517;1254;95803;-67
2023/11/27 15:23:03;;;;;;;19.50;14.30;;;;;;;0.09;79.31;98981.41;103265;1254;137860;-67
2023/11/27 15:25:32;;;;;;;21.80;14.50;;;;;;;0.04;79.56;98980.11;103741;1254;1003104;-69
2023/11/27 15:28:00;;;;;;;20.00;13.90;;;;;;;0.03;79.77;98979.27;103700;1254;1002412;-68
2023/11/27 15:30:30;;;;;;;18.40;13.30;;;;;;;0.01;79.81;98978.94;103009;1254;138509;-67
2023/11/27 15:32:59;;;;;;;19.80;13.40;;;;;;;0.03;79.81;98976.20;103227;1254;98325;-67
2023/11/27 15:35:29;;;;;;;18.20;13.00;;;;;;;0.08;80.13;98972.20;102956;1260;138244;-68
2023/11/27 15:37:57;;;;;;;20.30;14.60;;;;;;;0.15;80.24;98962.53;104423;1257;95703;-68
2023/11/27 15:40:27;;;;;;;20.20;15.60;;;;;;;0.20;80.18;98964.38;102956;1257;111018;-68
2023/11/27 15:42:57;;;;;;;24.10;16.70;;;;;;;0.25;80.16;98960.23;103016;1259;108522;-68
2023/11/27 15:45:25;;;;;;;21.10;16.10;;;;;;;0.32;80.19;98955.52;103123;1260;97813;-68
2023/11/27 15:47:52;;;;;;;24.30;17.80;;;;;;;0.32;79.99;98956.89;102134;1257;1002631;-68
2023/11/27 15:50:23;;;;;;;25.30;19.00;;;;;;;0.30;79.94;98956.90;102990;1256;1003817;-69
2023/11/27 15:52:51;;;;;;;25.40;18.50;;;;;;;0.30;80.06;98962.38;102191;1257;1002927;-69
2023/11/27 15:55:20;;;;;;;28.50;19.90;;;;;;;0.30;80.20;98958.79;102197;1258;1003661;-69
2023/11/27 15:57:48;;;;;;;27.50;18.40;;;;;;;0.28;80.32;98962.06;102331;1255;1003442;-69
2023/11/27 16:00:18;;;;;;;26.80;17.60;;;;;;;0.27;80.43;98960.37;102894;1260;138791;-70
2023/11/27 16:02:46;;;;;;;26.40;17.90;;;;;;;0.29;80.51;98956.07;103263;1260;97945;-69
2023/11/27 16:05:17;;;;;;;24.70;17.20;;;;;;;0.31;80.48;98957.92;102308;1260;1002876;-71
2023/11/27 16:07:44;;;;;;;26.80;18.30;;;;;;;0.36;80.55;98954.96;103610;1257;106858;-70
2023/11/27 16:10:13;;;;;;;29.20;19.70;;;;;;;0.42;80.42;98953.20;103274;1257;97788;-69
2023/11/27 16:12:40;;;;;;;33.70;21.90;;;;;;;0.47;80.45;98953.64;103185;1258;138956;-71
2023/11/27 16:15:10;;;;;;;32.80;23.10;;;;;;;0.48;80.41;98949.51;103219;1256;98776;-70
2023/11/27 16:17:42;;;;;;;33.50;23.60;;;;;;;0.48;80.36;98943.53;103162;1254;138021;-69
2023/11/27 16:20:24;;;;;;;35.70;24.00;;;;;;;0.49;80.48;98937.87;103153;1260;106602;-69
2023/11/27 16:22:52;;;;;;;35.20;23.70;;;;;;;0.45;80.34;98933.83;103113;1258;138020;-69
2023/11/27 16:25:20;;;;;;;37.30;25.30;;;;;;;0.43;80.32;98938.30;103220;1260;108224;-69
2023/11/27 16:27:47;;;;;;;41.00;25.90;;;;;;;0.39;80.29;98937.67;102502;1260;1002683;-69
2023/11/27 16:30:20;;;;;;;29.70;21.10;;;;;;;0.35;80.29;98936.85;103036;1257;138776;-69
2023/11/27 16:32:48;;;;;;;29.20;21.40;;;;;;;0.31;80.30;98935.01;103265;1257;106820;-70
2023/11/27 16:35:21;;;;;;;32.50;21.40;;;;;;;0.28;80.37;98928.20;103141;1260;138337;-70
2023/11/27 16:37:50;;;;;;;33.90;22.40;;;;;;;0.26;80.44;98924.48;102482;1260;1003180;-69
2023/11/27 16:40:19;;;;;;;32.90;21.40;;;;;;;0.26;80.56;98925.17;103381;1254;97802;-69
2023/11/27 16:42:50;;;;;;;34.20;21.90;;;;;;;0.29;80.71;98924.95;103176;1257;137674;-70
2023/11/27 16:45:18;;;;;;;35.80;24.10;;;;;;;0.32;80.67;98927.31;102499;1259;1002962;-70
2023/11/27 16:47:45;;;;;;;36.30;24.30;;;;;;;0.35;80.76;98929.33;104082;1254;137962;-70
2023/11/27 16:50:14;;;;;;;37.40;24.90;;;;;;;0.43;80.95;98929.92;102825;1255;1002277;-70
2023/11/27 16:52:41;;;;;;;37.50;23.90;;;;;;;0.46;80.76;98931.06;103240;1254;138271;-71
2023/11/27 16:55:10;;;;;;;36.60;24.80;;;;;;;0.45;80.58;98930.58;103350;1254;113006;-72
2023/11/27 16:57:38;;;;;;;37.20;25.20;;;;;;;0.43;80.65;98931.80;103295;1259;106973;-69